createdAt,value
2022-11-24T00:01:39.186Z,3.70
2022-11-24T00:04:41.882Z,4.17
2022-11-24T00:07:44.688Z,3.40
2022-11-24T00:10:48.906Z,4.50
2022-11-24T00:13:52.305Z,3.43
2022-11-24T00:16:55.257Z,3.83
2022-11-24T00:19:58.130Z,4.03
2022-11-24T00:23:01.915Z,5.17
2022-11-24T00:26:08.480Z,4.57
2022-11-24T00:29:12.929Z,4.53
2022-11-24T00:32:15.637Z,4.03
2022-11-24T00:35:18.345Z,3.50
2022-11-24T00:38:21.226Z,3.17
2022-11-24T00:41:26.268Z,3.50
2022-11-24T00:44:30.008Z,3.03
2022-11-24T00:47:32.976Z,3.73
2022-11-24T00:50:35.737Z,3.50
2022-11-24T00:53:38.763Z,3.13
2022-11-24T00:56:42.856Z,3.10
2022-11-24T00:59:45.587Z,3.03
2022-11-24T01:02:48.632Z,3.40
2022-11-24T01:05:51.398Z,3.03
2022-11-24T01:08:54.788Z,2.70
2022-11-24T01:12:04.749Z,3.07
2022-11-24T01:15:08.273Z,3.20
2022-11-24T01:18:11.151Z,2.70
2022-11-24T01:21:14.833Z,3.00
2022-11-24T01:24:18.352Z,3.00
2022-11-24T01:27:22.414Z,3.07
2022-11-24T01:30:25.210Z,2.80
2022-11-24T01:33:28.116Z,3.37
2022-11-24T01:36:30.901Z,3.05
2022-11-24T01:39:33.619Z,2.63
2022-11-24T01:42:48.090Z,2.63
2022-11-24T01:45:51.110Z,2.97
2022-11-24T01:49:01.422Z,3.77
2022-11-24T01:52:08.061Z,3.37
2022-11-24T01:55:18.739Z,3.53
2022-11-24T01:58:27.738Z,3.27
2022-11-24T02:01:32.239Z,3.13
2022-11-24T02:04:36.590Z,3.00
2022-11-24T02:07:39.700Z,2.57
2022-11-24T02:10:43.823Z,2.90
2022-11-24T02:13:49.709Z,2.90
2022-11-24T02:16:53.074Z,3.33
2022-11-24T02:19:58.407Z,2.67
2022-11-24T02:23:06.392Z,3.10
2022-11-24T02:26:17.389Z,3.37
2022-11-24T02:29:21.819Z,3.43
2022-11-24T02:32:24.671Z,2.97
2022-11-24T02:35:28.694Z,2.80
2022-11-24T02:38:33.356Z,3.20
2022-11-24T02:41:36.083Z,2.90
2022-11-24T02:44:45.246Z,3.30
2022-11-24T02:47:47.967Z,3.13
2022-11-24T02:50:50.855Z,4.10
2022-11-24T02:53:53.551Z,2.93
2022-11-24T02:56:56.664Z,3.47
2022-11-24T03:00:00.767Z,3.50
2022-11-24T03:03:04.787Z,3.07
2022-11-24T03:06:07.634Z,3.27
2022-11-24T03:09:11.300Z,3.23
2022-11-24T03:12:14.088Z,3.47
2022-11-24T03:15:18.407Z,3.83
2022-11-24T03:18:21.215Z,3.50
2022-11-24T03:21:23.882Z,6.67
2022-11-24T03:24:26.654Z,4.23
2022-11-24T03:27:29.483Z,4.03
2022-11-24T03:30:33.586Z,3.80
2022-11-24T03:33:36.950Z,3.60
2022-11-24T03:36:39.837Z,3.13
2022-11-24T03:39:42.634Z,4.13
2022-11-24T03:42:45.339Z,3.20
2022-11-24T03:45:50.120Z,3.57
2022-11-24T03:48:52.827Z,3.20
2022-11-24T03:51:55.530Z,4.03
2022-11-24T03:54:58.272Z,3.50
2022-11-24T03:58:02.115Z,3.77
2022-11-24T04:01:06.198Z,4.20
2022-11-24T04:04:11.398Z,3.77
2022-11-24T04:07:14.316Z,3.10
2022-11-24T04:10:17.299Z,3.67
2022-11-24T04:13:21.234Z,3.67
2022-11-24T04:16:25.372Z,3.87
2022-11-24T04:19:28.075Z,3.40
2022-11-24T04:22:31.430Z,4.70
2022-11-24T04:25:34.554Z,4.53
2022-11-24T04:28:37.994Z,3.83
2022-11-24T04:31:42.087Z,4.20
2022-11-24T04:34:45.067Z,4.10
2022-11-24T04:37:48.114Z,6.20
2022-11-24T04:40:51.081Z,4.80
2022-11-24T04:43:53.752Z,5.57
2022-11-24T04:46:57.901Z,6.63
2022-11-24T04:50:00.675Z,4.67
2022-11-24T04:53:04.507Z,4.60
2022-11-24T04:56:08.240Z,4.10
2022-11-24T04:59:14.311Z,4.73
2022-11-24T05:02:18.813Z,4.73
2022-11-24T05:05:21.622Z,3.97
2022-11-24T05:08:24.322Z,5.00
2022-11-24T05:11:27.003Z,16.17
2022-11-24T05:14:29.752Z,7.93
2022-11-24T05:17:35.723Z,6.87
2022-11-24T05:20:38.993Z,6.90
2022-11-24T05:23:41.926Z,7.13
2022-11-24T05:26:44.640Z,7.37
2022-11-24T05:29:47.584Z,7.93
2022-11-24T05:32:51.636Z,7.43
2022-11-24T05:35:54.377Z,6.93
2022-11-24T05:38:57.092Z,7.00
2022-11-24T05:41:59.895Z,6.60
2022-11-24T05:45:02.641Z,6.03
2022-11-24T05:48:08.490Z,6.87
2022-11-24T05:51:11.202Z,7.10
2022-11-24T05:54:13.914Z,9.57
2022-11-24T05:57:18.036Z,8.80
2022-11-24T06:00:20.848Z,11.23
2022-11-24T06:03:24.932Z,9.77
2022-11-24T06:06:28.068Z,8.60
2022-11-24T06:09:30.821Z,9.00
2022-11-24T06:12:33.552Z,9.07
2022-11-24T06:15:37.705Z,9.50
2022-11-24T06:18:42.337Z,7.83
2022-11-24T06:21:45.037Z,8.43
2022-11-24T06:24:47.887Z,7.80
2022-11-24T06:27:50.923Z,7.60
2022-11-24T06:30:53.858Z,10.03
2022-11-24T06:33:57.915Z,10.13
2022-11-24T06:37:00.695Z,9.87
2022-11-24T06:40:04.443Z,8.80
2022-11-24T06:43:07.163Z,9.70
2022-11-24T06:46:10.092Z,9.93
2022-11-24T06:49:14.194Z,10.47
2022-11-24T06:52:16.883Z,9.40
2022-11-24T06:55:19.576Z,11.10
2022-11-24T06:58:22.659Z,12.27
2022-11-24T07:01:27.330Z,13.60
2022-11-24T07:04:31.782Z,13.10
2022-11-24T07:07:34.726Z,13.27
2022-11-24T07:10:38.251Z,12.40
2022-11-24T07:13:40.960Z,12.87
2022-11-24T07:16:43.759Z,10.70
2022-11-24T07:19:47.914Z,9.43
2022-11-24T07:22:50.640Z,9.83
2022-11-24T07:25:54.787Z,10.43
2022-11-24T07:28:58.122Z,12.00
2022-11-24T07:32:05.248Z,9.33
2022-11-24T07:35:10.418Z,7.87
2022-11-24T07:38:13.306Z,7.20
2022-11-24T07:41:19.412Z,8.47
2022-11-24T07:44:22.141Z,6.67
2022-11-24T07:47:24.904Z,8.27
2022-11-24T07:50:28.993Z,9.73
2022-11-24T07:53:32.427Z,9.63
2022-11-24T07:56:35.229Z,11.80
2022-11-24T07:59:37.926Z,16.67
2022-11-24T08:02:41.556Z,12.40
2022-11-24T08:06:22.394Z,11.80
2022-11-24T08:09:16.638Z,9.67
2022-11-24T08:12:21.666Z,10.37
2022-11-24T08:15:24.412Z,10.80
2022-11-24T08:18:27.858Z,10.90
2022-11-24T08:21:35.442Z,10.63
2022-11-24T08:24:38.521Z,8.10
2022-11-24T08:27:41.340Z,7.27
2022-11-24T08:30:44.032Z,6.97
2022-11-24T08:33:47.272Z,6.77
2022-11-24T08:36:51.434Z,5.43
2022-11-24T08:39:54.244Z,5.43
2022-11-24T08:42:58.280Z,5.30
2022-11-24T08:46:02.210Z,5.27
2022-11-24T08:49:06.440Z,6.43
2022-11-24T08:52:10.827Z,5.90
2022-11-24T08:55:13.565Z,5.80
2022-11-24T08:58:16.725Z,2.27
2022-11-24T09:01:19.723Z,3.17
2022-11-24T09:04:22.593Z,3.30
2022-11-24T09:07:26.731Z,2.37
2022-11-24T09:10:29.555Z,1.90
2022-11-24T09:13:32.327Z,1.80
2022-11-24T09:16:35.223Z,1.73
2022-11-24T09:19:38.029Z,1.63
2022-11-24T09:22:43.094Z,2.27
2022-11-24T09:25:45.803Z,2.20
2022-11-24T09:28:50.110Z,2.13
2022-11-24T09:31:53.186Z,2.30
2022-11-24T09:34:56.262Z,3.17
2022-11-24T09:38:00.334Z,2.53
2022-11-24T09:41:27.954Z,2.83
2022-11-24T09:45:06.480Z,2.20
2022-11-24T09:48:17.232Z,2.00
2022-11-24T09:51:25.001Z,2.00
2022-11-24T09:54:31.589Z,1.73
2022-11-24T09:57:38.226Z,2.33
2022-11-24T10:00:42.373Z,2.03
2022-11-24T10:03:47.381Z,1.80
2022-11-24T10:07:00.306Z,1.97
2022-11-24T10:10:13.245Z,1.90
2022-11-24T10:13:31.266Z,2.03
2022-11-24T10:16:46.988Z,1.97
2022-11-24T10:19:56.104Z,2.07
2022-11-24T10:23:24.539Z,1.80
2022-11-24T10:26:36.636Z,1.57
2022-11-24T10:29:41.822Z,1.90
2022-11-24T10:32:48.502Z,1.77
2022-11-24T10:35:56.956Z,1.57
2022-11-24T10:39:05.323Z,1.87
2022-11-24T10:42:16.800Z,1.80
2022-11-24T10:45:22.288Z,1.77
2022-11-24T10:48:28.315Z,1.40
2022-11-24T10:51:54.139Z,1.57
2022-11-24T10:54:59.096Z,1.50
2022-11-24T10:58:17.245Z,1.60
2022-11-24T11:01:22.304Z,1.53
2022-11-24T11:04:28.123Z,2.10
2022-11-24T11:07:30.915Z,1.70
2022-11-24T11:10:33.803Z,1.70
2022-11-24T11:13:37.862Z,2.20
2022-11-24T11:16:42.234Z,1.70
2022-11-24T11:19:54.257Z,1.60
2022-11-24T11:23:01.372Z,1.60
2022-11-24T11:26:31.289Z,1.80
2022-11-24T11:36:26.210Z,1.90
2022-11-24T11:39:32.920Z,1.73
2022-11-24T11:46:13.702Z,1.93
2022-11-24T11:49:16.552Z,1.77
2022-11-24T11:52:47.708Z,2.10
2022-11-24T11:56:10.814Z,1.80
2022-11-24T11:59:28.599Z,1.70
2022-11-24T12:02:53.593Z,1.50
2022-11-24T12:06:05.803Z,1.50
2022-11-24T12:09:21.343Z,5.90
2022-11-24T12:12:44.670Z,1.60
2022-11-24T12:15:51.013Z,1.90
2022-11-24T12:19:08.293Z,1.60
2022-11-24T12:22:23.452Z,1.63
2022-11-24T12:25:31.768Z,1.30
2022-11-24T12:28:46.378Z,1.60
2022-11-24T12:31:56.241Z,1.50
2022-11-24T12:35:12.910Z,2.37
2022-11-24T12:38:31.740Z,2.00
2022-11-24T12:41:50.142Z,2.17
2022-11-24T12:45:14.108Z,1.60
2022-11-24T12:48:29.745Z,1.50
2022-11-24T12:51:39.223Z,1.37
2022-11-24T12:54:42.258Z,3.43
2022-11-24T12:57:51.425Z,2.10
2022-11-24T13:01:04.234Z,3.90
2022-11-24T13:04:16.547Z,1.67
2022-11-24T13:07:28.115Z,1.40
2022-11-24T13:10:54.712Z,1.83
2022-11-24T13:13:59.790Z,1.60
2022-11-24T13:20:33.631Z,1.87
2022-11-24T13:23:38.327Z,2.60
2022-11-24T13:26:47.320Z,1.73
2022-11-24T13:29:51.658Z,1.93
2022-11-24T13:33:02.329Z,1.80
2022-11-24T13:36:35.002Z,1.83
2022-11-24T13:39:52.016Z,1.50
2022-11-24T13:43:23.393Z,1.57
2022-11-24T13:47:03.259Z,1.70
2022-11-24T13:50:13.898Z,2.10
2022-11-24T13:53:26.339Z,3.20
2022-11-24T13:56:32.381Z,1.33
2022-11-24T13:59:36.418Z,1.53
2022-11-24T14:02:39.465Z,1.53
2022-11-24T14:05:49.340Z,1.70
2022-11-24T14:08:53.286Z,1.80
2022-11-24T14:12:02.866Z,1.33
2022-11-24T14:15:23.496Z,1.90
2022-11-24T14:18:26.393Z,1.50
2022-11-24T14:21:31.860Z,1.87
2022-11-24T14:24:38.227Z,2.10
2022-11-24T14:27:45.552Z,2.43
2022-11-24T14:30:48.435Z,1.97
2022-11-24T14:33:52.321Z,2.57
2022-11-24T14:36:57.080Z,1.80
2022-11-24T14:40:00.164Z,2.17
2022-11-24T14:43:05.014Z,1.87
2022-11-24T14:46:12.120Z,2.10
2022-11-24T14:49:22.509Z,1.70
2022-11-24T14:52:26.776Z,1.90
2022-11-24T14:55:32.735Z,1.60
2022-11-24T14:58:41.994Z,1.70
2022-11-24T15:01:45.303Z,2.43
2022-11-24T15:05:03.191Z,2.40
2022-11-24T15:08:06.589Z,2.00
2022-11-24T15:11:09.432Z,3.03
2022-11-24T15:14:32.704Z,2.10
2022-11-24T15:17:36.081Z,1.80
2022-11-24T15:20:41.786Z,3.00
2022-11-24T15:23:45.691Z,2.47
2022-11-24T15:26:48.429Z,2.37
2022-11-24T15:29:52.476Z,2.67
2022-11-24T15:32:56.682Z,2.63
2022-11-24T15:36:00.525Z,3.33
2022-11-24T15:39:04.447Z,5.67
2022-11-24T15:42:07.553Z,3.47
2022-11-24T15:45:12.632Z,3.53
2022-11-24T15:48:18.141Z,4.23
2022-11-24T15:51:22.421Z,7.60
2022-11-24T15:54:26.443Z,7.47
2022-11-24T15:57:29.220Z,20.63
2022-11-24T16:00:33.708Z,6.30
2022-11-24T16:03:47.090Z,5.07
2022-11-24T16:06:50.423Z,4.77
2022-11-24T16:09:53.157Z,9.97
2022-11-24T16:12:55.833Z,5.87
2022-11-24T16:16:00.072Z,12.20
2022-11-24T16:19:03.200Z,12.53
2022-11-24T16:22:06.397Z,10.17
2022-11-24T16:25:10.197Z,8.93
2022-11-24T16:28:13.249Z,4.50
2022-11-24T16:31:18.501Z,4.57
2022-11-24T16:34:22.027Z,5.20
2022-11-24T16:37:24.971Z,4.00
2022-11-24T16:40:28.648Z,5.60
2022-11-24T16:43:31.766Z,7.50
2022-11-24T16:46:36.016Z,14.30
2022-11-24T16:49:39.062Z,9.77
2022-11-24T16:52:41.908Z,10.33
2022-11-24T16:55:44.667Z,9.47
2022-11-24T16:58:47.628Z,8.20
2022-11-24T17:01:51.874Z,7.53
2022-11-24T17:04:54.731Z,9.70
2022-11-24T17:07:57.539Z,7.47
2022-11-24T17:11:06.161Z,9.80
2022-11-24T17:14:10.986Z,10.87
2022-11-24T17:17:15.252Z,13.00
2022-11-24T17:20:18.022Z,9.23
2022-11-24T17:23:20.818Z,12.33
2022-11-24T17:26:24.884Z,21.00
2022-11-24T17:29:27.650Z,12.67
2022-11-24T17:32:32.671Z,18.30
2022-11-24T17:35:35.740Z,14.90
2022-11-24T17:38:38.464Z,16.47
2022-11-24T17:41:41.288Z,22.40
2022-11-24T17:44:45.678Z,32.50
2022-11-24T17:47:53.241Z,25.80
2022-11-24T17:51:03.301Z,18.40
2022-11-24T17:54:31.162Z,16.30
2022-11-24T17:57:29.305Z,16.73
2022-11-24T18:00:32.166Z,15.90
2022-11-24T18:03:36.495Z,15.63
2022-11-24T18:06:39.444Z,16.40
2022-11-24T18:09:42.256Z,14.83
2022-11-24T18:12:44.998Z,15.47
2022-11-24T18:15:48.029Z,11.47
2022-11-24T18:19:07.451Z,10.70
2022-11-24T18:22:11.356Z,13.50
2022-11-24T18:25:14.120Z,19.50
2022-11-24T18:28:16.806Z,20.43
2022-11-24T18:31:20.701Z,28.40
2022-11-24T18:34:25.182Z,21.53
2022-11-24T18:37:30.429Z,9.07
2022-11-24T18:40:33.218Z,9.70
2022-11-24T18:43:38.130Z,9.80
2022-11-24T18:46:40.898Z,9.97
2022-11-24T18:49:44.977Z,11.63
2022-11-24T18:52:47.636Z,8.80
2022-11-24T18:55:57.956Z,8.53
2022-11-24T18:59:00.661Z,7.97
2022-11-24T19:02:03.766Z,11.20
2022-11-24T19:05:08.494Z,11.40
2022-11-24T19:08:11.255Z,16.13
2022-11-24T19:11:18.984Z,19.20
2022-11-24T19:14:21.670Z,19.03
2022-11-24T19:17:24.435Z,17.70
2022-11-24T19:20:28.640Z,24.10
2022-11-24T19:23:31.374Z,29.97
2022-11-24T19:26:35.841Z,25.73
2022-11-24T19:29:42.927Z,25.20
2022-11-24T19:32:46.223Z,33.83
2022-11-24T19:36:00.262Z,21.40
2022-11-24T19:39:04.758Z,19.20
2022-11-24T19:42:07.658Z,24.50
2022-11-24T19:45:11.316Z,24.60
2022-11-24T19:48:14.112Z,17.07
2022-11-24T19:51:20.153Z,15.20
2022-11-24T19:54:22.834Z,20.93
2022-11-24T19:57:25.528Z,22.33
2022-11-24T20:00:31.910Z,16.07
2022-11-24T20:03:35.166Z,15.43
2022-11-24T20:06:41.227Z,13.43
2022-11-24T20:09:44.005Z,12.37
2022-11-24T20:12:46.866Z,11.03
2022-11-24T20:15:49.591Z,9.10
2022-11-24T20:18:53.350Z,8.57
2022-11-24T20:21:57.577Z,9.63
2022-11-24T20:25:00.301Z,8.80
2022-11-24T20:28:03.834Z,10.17
2022-11-24T20:31:08.400Z,9.00
2022-11-24T20:34:12.201Z,8.43
2022-11-24T20:37:16.259Z,8.43
2022-11-24T20:40:19.249Z,8.27
2022-11-24T20:43:21.980Z,8.43
2022-11-24T20:46:26.838Z,10.87
2022-11-24T20:49:30.686Z,13.57
2022-11-24T20:52:34.761Z,14.73
2022-11-24T20:55:37.466Z,12.23
2022-11-24T20:58:40.382Z,13.50
2022-11-24T21:01:45.613Z,13.50
2022-11-24T21:04:48.433Z,12.07
2022-11-24T21:07:52.524Z,10.30
2022-11-24T21:10:56.383Z,10.37
2022-11-24T21:13:59.653Z,10.00
2022-11-24T21:17:03.334Z,9.90
2022-11-24T21:20:07.348Z,9.53
2022-11-24T21:23:11.602Z,9.13
2022-11-24T21:26:17.211Z,9.00
2022-11-24T21:29:23.266Z,10.10
2022-11-24T21:32:26.553Z,9.93
2022-11-24T21:35:29.520Z,10.00
2022-11-24T21:38:33.748Z,9.93
2022-11-24T21:41:36.485Z,8.77
2022-11-24T21:44:39.163Z,9.90
2022-11-24T21:47:42.547Z,9.00
2022-11-24T21:50:45.373Z,10.17
2022-11-24T21:53:49.600Z,13.20
2022-11-24T21:56:53.736Z,17.50
2022-11-24T21:59:56.800Z,13.93
2022-11-24T22:02:59.621Z,10.13
2022-11-24T22:06:03.206Z,8.87
2022-11-24T22:09:07.266Z,12.13
2022-11-24T22:12:10.047Z,8.27
2022-11-24T22:15:12.783Z,10.53
2022-11-24T22:18:15.569Z,12.50
2022-11-24T22:21:20.656Z,35.83
2022-11-24T22:24:27.312Z,18.33
2022-11-24T22:27:30.287Z,13.57
2022-11-24T22:30:33.022Z,14.13
2022-11-24T22:33:36.199Z,14.60
2022-11-24T22:36:38.906Z,13.43
2022-11-24T22:39:43.010Z,11.53
2022-11-24T22:42:46.087Z,11.83
2022-11-24T22:45:49.840Z,10.73
2022-11-24T22:48:53.901Z,11.60
2022-11-24T22:51:56.619Z,12.07
2022-11-24T22:55:00.749Z,11.07
2022-11-24T22:58:03.494Z,11.40
2022-11-24T23:01:07.089Z,12.43
2022-11-24T23:04:09.910Z,12.00
2022-11-24T23:07:12.707Z,12.57
2022-11-24T23:10:16.818Z,10.47
2022-11-24T23:13:19.537Z,8.00
2022-11-24T23:16:23.101Z,8.47
2022-11-24T23:19:25.870Z,8.07
2022-11-24T23:22:28.678Z,10.33
2022-11-24T23:25:34.414Z,9.00
2022-11-24T23:28:37.762Z,7.27
2022-11-24T23:31:40.828Z,8.47
2022-11-24T23:34:43.715Z,8.17
2022-11-24T23:38:06.621Z,7.33
2022-11-24T23:41:12.921Z,8.10
2022-11-24T23:44:15.653Z,8.33
2022-11-24T23:47:18.312Z,8.03
2022-11-24T23:50:21.238Z,8.07
2022-11-24T23:53:24.049Z,6.07
2022-11-24T23:56:32.289Z,6.93
2022-11-24T23:59:35.159Z,7.27
